sensor_id;sensor_type;location;lat;lon;timestamp;P1;durP1;ratioP1;P2;durP2;ratioP2
50161;SDS011;36061;48.116;11.612;2023-05-29T00:00:54;10.13;;;5.23;;
50161;SDS011;36061;48.116;11.612;2023-05-29T00:03:22;8.23;;;5.30;;
50161;SDS011;36061;48.116;11.612;2023-05-29T00:05:49;9.33;;;5.80;;
50161;SDS011;36061;48.116;11.612;2023-05-29T00:08:17;7.03;;;5.00;;
50161;SDS011;36061;48.116;11.612;2023-05-29T00:10:45;12.10;;;6.70;;
50161;SDS011;36061;48.116;11.612;2023-05-29T00:13:12;13.30;;;7.10;;
50161;SDS011;36061;48.116;11.612;2023-05-29T00:15:39;8.40;;;5.67;;
50161;SDS011;36061;48.116;11.612;2023-05-29T00:18:06;10.83;;;5.07;;
50161;SDS011;36061;48.116;11.612;2023-05-29T00:20:35;10.47;;;5.30;;
50161;SDS011;36061;48.116;11.612;2023-05-29T00:23:03;7.67;;;4.80;;
50161;SDS011;36061;48.116;11.612;2023-05-29T00:25:31;9.53;;;5.07;;
50161;SDS011;36061;48.116;11.612;2023-05-29T00:27:58;9.57;;;4.53;;
50161;SDS011;36061;48.116;11.612;2023-05-29T00:30:26;7.30;;;4.53;;
50161;SDS011;36061;48.116;11.612;2023-05-29T00:32:53;8.57;;;4.70;;
50161;SDS011;36061;48.116;11.612;2023-05-29T00:35:21;13.07;;;5.33;;
50161;SDS011;36061;48.116;11.612;2023-05-29T00:37:50;7.43;;;4.63;;
50161;SDS011;36061;48.116;11.612;2023-05-29T00:40:17;7.77;;;4.50;;
50161;SDS011;36061;48.116;11.612;2023-05-29T00:42:45;7.33;;;5.00;;
50161;SDS011;36061;48.116;11.612;2023-05-29T00:45:12;8.47;;;4.63;;
50161;SDS011;36061;48.116;11.612;2023-05-29T00:47:39;8.17;;;5.30;;
50161;SDS011;36061;48.116;11.612;2023-05-29T00:50:08;6.50;;;4.60;;
50161;SDS011;36061;48.116;11.612;2023-05-29T00:52:39;8.87;;;4.93;;
50161;SDS011;36061;48.116;11.612;2023-05-29T00:55:09;8.37;;;4.77;;
50161;SDS011;36061;48.116;11.612;2023-05-29T00:57:37;9.07;;;5.00;;
50161;SDS011;36061;48.116;11.612;2023-05-29T01:00:05;8.20;;;4.57;;
50161;SDS011;36061;48.116;11.612;2023-05-29T01:02:37;6.93;;;4.40;;
50161;SDS011;36061;48.116;11.612;2023-05-29T01:05:06;7.80;;;4.60;;
50161;SDS011;36061;48.116;11.612;2023-05-29T01:07:35;8.30;;;5.30;;
50161;SDS011;36061;48.116;11.612;2023-05-29T01:10:02;6.37;;;4.67;;
50161;SDS011;36061;48.116;11.612;2023-05-29T01:12:33;6.60;;;4.30;;
50161;SDS011;36061;48.116;11.612;2023-05-29T01:15:10;9.67;;;4.63;;
50161;SDS011;36061;48.116;11.612;2023-05-29T01:18:02;6.97;;;4.20;;
50161;SDS011;36061;48.116;11.612;2023-05-29T01:20:50;5.33;;;4.23;;
50161;SDS011;36061;48.116;11.612;2023-05-29T01:23:50;6.20;;;4.27;;
50161;SDS011;36061;48.116;11.612;2023-05-29T01:26:42;8.57;;;4.17;;
50161;SDS011;36061;48.116;11.612;2023-05-29T01:29:17;8.30;;;4.97;;
50161;SDS011;36061;48.116;11.612;2023-05-29T01:31:46;6.90;;;4.63;;
50161;SDS011;36061;48.116;11.612;2023-05-29T01:34:15;7.60;;;5.60;;
50161;SDS011;36061;48.116;11.612;2023-05-29T01:36:43;8.07;;;4.50;;
50161;SDS011;36061;48.116;11.612;2023-05-29T01:39:11;8.17;;;4.60;;
50161;SDS011;36061;48.116;11.612;2023-05-29T01:41:40;8.77;;;4.70;;
50161;SDS011;36061;48.116;11.612;2023-05-29T01:44:10;8.00;;;4.43;;
50161;SDS011;36061;48.116;11.612;2023-05-29T01:46:38;8.13;;;4.37;;
50161;SDS011;36061;48.116;11.612;2023-05-29T01:49:07;5.47;;;3.93;;
50161;SDS011;36061;48.116;11.612;2023-05-29T01:51:35;6.97;;;4.47;;
50161;SDS011;36061;48.116;11.612;2023-05-29T01:54:03;6.30;;;3.80;;
50161;SDS011;36061;48.116;11.612;2023-05-29T01:56:30;8.53;;;4.90;;
50161;SDS011;36061;48.116;11.612;2023-05-29T01:59:00;6.93;;;3.73;;
50161;SDS011;36061;48.116;11.612;2023-05-29T02:01:29;5.97;;;3.93;;
50161;SDS011;36061;48.116;11.612;2023-05-29T02:03:58;5.43;;;4.70;;
50161;SDS011;36061;48.116;11.612;2023-05-29T02:06:25;8.37;;;4.37;;
50161;SDS011;36061;48.116;11.612;2023-05-29T02:08:52;7.27;;;3.93;;
50161;SDS011;36061;48.116;11.612;2023-05-29T02:11:19;9.70;;;4.90;;
50161;SDS011;36061;48.116;11.612;2023-05-29T02:13:47;5.93;;;3.63;;
50161;SDS011;36061;48.116;11.612;2023-05-29T02:16:16;6.30;;;4.10;;
50161;SDS011;36061;48.116;11.612;2023-05-29T02:18:45;8.60;;;4.30;;
50161;SDS011;36061;48.116;11.612;2023-05-29T02:21:13;7.47;;;3.97;;
50161;SDS011;36061;48.116;11.612;2023-05-29T02:23:42;5.30;;;3.60;;
50161;SDS011;36061;48.116;11.612;2023-05-29T02:26:09;4.70;;;3.70;;
50161;SDS011;36061;48.116;11.612;2023-05-29T02:28:39;5.60;;;4.30;;
50161;SDS011;36061;48.116;11.612;2023-05-29T02:31:06;5.97;;;3.40;;
50161;SDS011;36061;48.116;11.612;2023-05-29T02:33:36;7.90;;;3.90;;
50161;SDS011;36061;48.116;11.612;2023-05-29T02:36:04;5.17;;;3.87;;
50161;SDS011;36061;48.116;11.612;2023-05-29T02:38:37;7.10;;;3.93;;
50161;SDS011;36061;48.116;11.612;2023-05-29T02:41:05;7.60;;;4.00;;
50161;SDS011;36061;48.116;11.612;2023-05-29T02:43:33;6.77;;;3.90;;
50161;SDS011;36061;48.116;11.612;2023-05-29T02:46:00;4.20;;;3.40;;
50161;SDS011;36061;48.116;11.612;2023-05-29T02:48:27;7.10;;;3.57;;
50161;SDS011;36061;48.116;11.612;2023-05-29T02:50:56;5.63;;;3.37;;
50161;SDS011;36061;48.116;11.612;2023-05-29T02:53:24;5.53;;;3.80;;
50161;SDS011;36061;48.116;11.612;2023-05-29T02:55:51;5.43;;;3.47;;
50161;SDS011;36061;48.116;11.612;2023-05-29T02:58:21;6.00;;;3.93;;
50161;SDS011;36061;48.116;11.612;2023-05-29T03:00:48;7.50;;;4.20;;
50161;SDS011;36061;48.116;11.612;2023-05-29T03:03:15;7.50;;;3.60;;
50161;SDS011;36061;48.116;11.612;2023-05-29T03:05:43;4.00;;;3.20;;
50161;SDS011;36061;48.116;11.612;2023-05-29T03:08:13;6.60;;;4.37;;
50161;SDS011;36061;48.116;11.612;2023-05-29T03:10:42;6.60;;;4.33;;
50161;SDS011;36061;48.116;11.612;2023-05-29T03:13:10;5.70;;;3.67;;
50161;SDS011;36061;48.116;11.612;2023-05-29T03:15:43;7.07;;;3.73;;
50161;SDS011;36061;48.116;11.612;2023-05-29T03:18:11;4.40;;;3.57;;
50161;SDS011;36061;48.116;11.612;2023-05-29T03:20:38;5.67;;;3.80;;
50161;SDS011;36061;48.116;11.612;2023-05-29T03:23:06;7.13;;;3.77;;
50161;SDS011;36061;48.116;11.612;2023-05-29T03:25:36;5.67;;;3.63;;
50161;SDS011;36061;48.116;11.612;2023-05-29T03:28:03;7.10;;;4.10;;
50161;SDS011;36061;48.116;11.612;2023-05-29T03:30:31;4.57;;;3.50;;
50161;SDS011;36061;48.116;11.612;2023-05-29T03:32:58;5.00;;;3.47;;
50161;SDS011;36061;48.116;11.612;2023-05-29T03:35:42;6.70;;;3.43;;
50161;SDS011;36061;48.116;11.612;2023-05-29T03:38:10;5.13;;;3.37;;
50161;SDS011;36061;48.116;11.612;2023-05-29T03:40:39;6.07;;;3.17;;
50161;SDS011;36061;48.116;11.612;2023-05-29T03:43:07;5.33;;;3.30;;
50161;SDS011;36061;48.116;11.612;2023-05-29T03:45:34;6.53;;;3.83;;
50161;SDS011;36061;48.116;11.612;2023-05-29T03:48:01;4.43;;;3.10;;
50161;SDS011;36061;48.116;11.612;2023-05-29T03:50:30;5.47;;;3.73;;
50161;SDS011;36061;48.116;11.612;2023-05-29T03:52:57;8.27;;;3.90;;
50161;SDS011;36061;48.116;11.612;2023-05-29T03:55:26;5.87;;;3.90;;
50161;SDS011;36061;48.116;11.612;2023-05-29T03:57:55;5.00;;;3.47;;
50161;SDS011;36061;48.116;11.612;2023-05-29T04:00:22;5.93;;;3.70;;
50161;SDS011;36061;48.116;11.612;2023-05-29T04:02:50;5.37;;;3.43;;
50161;SDS011;36061;48.116;11.612;2023-05-29T04:05:18;7.53;;;3.90;;
50161;SDS011;36061;48.116;11.612;2023-05-29T04:07:45;6.63;;;4.03;;
50161;SDS011;36061;48.116;11.612;2023-05-29T04:10:14;4.40;;;4.00;;
50161;SDS011;36061;48.116;11.612;2023-05-29T04:12:41;4.77;;;3.33;;
50161;SDS011;36061;48.116;11.612;2023-05-29T04:15:10;4.73;;;3.37;;
50161;SDS011;36061;48.116;11.612;2023-05-29T04:17:37;5.50;;;3.30;;
50161;SDS011;36061;48.116;11.612;2023-05-29T04:20:06;5.93;;;4.10;;
50161;SDS011;36061;48.116;11.612;2023-05-29T04:22:34;5.57;;;4.10;;
50161;SDS011;36061;48.116;11.612;2023-05-29T04:25:02;5.10;;;3.13;;
50161;SDS011;36061;48.116;11.612;2023-05-29T04:27:30;6.23;;;3.33;;
50161;SDS011;36061;48.116;11.612;2023-05-29T04:29:59;7.23;;;3.60;;
50161;SDS011;36061;48.116;11.612;2023-05-29T04:32:33;4.63;;;3.47;;
50161;SDS011;36061;48.116;11.612;2023-05-29T04:35:02;6.07;;;3.57;;
50161;SDS011;36061;48.116;11.612;2023-05-29T04:37:33;5.77;;;3.40;;
50161;SDS011;36061;48.116;11.612;2023-05-29T04:40:05;6.33;;;4.00;;
50161;SDS011;36061;48.116;11.612;2023-05-29T04:42:34;7.37;;;3.93;;
50161;SDS011;36061;48.116;11.612;2023-05-29T04:45:02;5.13;;;3.70;;
50161;SDS011;36061;48.116;11.612;2023-05-29T04:47:33;4.17;;;3.33;;
50161;SDS011;36061;48.116;11.612;2023-05-29T04:50:01;6.07;;;3.70;;
50161;SDS011;36061;48.116;11.612;2023-05-29T04:52:29;4.00;;;3.00;;
50161;SDS011;36061;48.116;11.612;2023-05-29T04:54:57;7.87;;;4.43;;
50161;SDS011;36061;48.116;11.612;2023-05-29T04:57:25;4.87;;;3.43;;
50161;SDS011;36061;48.116;11.612;2023-05-29T04:59:53;6.50;;;3.67;;
50161;SDS011;36061;48.116;11.612;2023-05-29T05:02:20;5.07;;;3.50;;
50161;SDS011;36061;48.116;11.612;2023-05-29T05:04:48;6.03;;;3.63;;
50161;SDS011;36061;48.116;11.612;2023-05-29T05:07:16;7.90;;;3.83;;
50161;SDS011;36061;48.116;11.612;2023-05-29T05:09:44;5.33;;;3.50;;
50161;SDS011;36061;48.116;11.612;2023-05-29T05:12:18;7.03;;;3.53;;
50161;SDS011;36061;48.116;11.612;2023-05-29T05:14:46;6.13;;;3.77;;
50161;SDS011;36061;48.116;11.612;2023-05-29T05:17:13;6.40;;;3.73;;
50161;SDS011;36061;48.116;11.612;2023-05-29T05:19:41;8.00;;;4.00;;
50161;SDS011;36061;48.116;11.612;2023-05-29T05:22:09;6.70;;;4.63;;
50161;SDS011;36061;48.116;11.612;2023-05-29T05:24:37;8.93;;;4.70;;
50161;SDS011;36061;48.116;11.612;2023-05-29T05:27:04;6.67;;;4.83;;
50161;SDS011;36061;48.116;11.612;2023-05-29T05:29:31;9.43;;;3.63;;
50161;SDS011;36061;48.116;11.612;2023-05-29T05:31:59;7.10;;;4.67;;
50161;SDS011;36061;48.116;11.612;2023-05-29T05:34:26;8.00;;;4.27;;
50161;SDS011;36061;48.116;11.612;2023-05-29T05:36:53;5.30;;;4.30;;
50161;SDS011;36061;48.116;11.612;2023-05-29T05:39:23;9.17;;;4.70;;
50161;SDS011;36061;48.116;11.612;2023-05-29T05:41:51;8.20;;;4.47;;
50161;SDS011;36061;48.116;11.612;2023-05-29T05:44:48;6.67;;;4.47;;
50161;SDS011;36061;48.116;11.612;2023-05-29T05:47:16;8.67;;;4.90;;
50161;SDS011;36061;48.116;11.612;2023-05-29T05:49:43;8.37;;;4.77;;
50161;SDS011;36061;48.116;11.612;2023-05-29T05:52:11;6.03;;;4.50;;
50161;SDS011;36061;48.116;11.612;2023-05-29T05:54:40;8.43;;;4.70;;
50161;SDS011;36061;48.116;11.612;2023-05-29T05:57:07;7.20;;;4.20;;
50161;SDS011;36061;48.116;11.612;2023-05-29T05:59:36;7.57;;;5.00;;
50161;SDS011;36061;48.116;11.612;2023-05-29T06:02:04;7.93;;;5.10;;
50161;SDS011;36061;48.116;11.612;2023-05-29T06:04:32;8.50;;;5.00;;
50161;SDS011;36061;48.116;11.612;2023-05-29T06:06:59;8.23;;;4.90;;
50161;SDS011;36061;48.116;11.612;2023-05-29T06:09:28;9.53;;;4.90;;
50161;SDS011;36061;48.116;11.612;2023-05-29T06:11:57;6.10;;;4.53;;
50161;SDS011;36061;48.116;11.612;2023-05-29T06:14:24;5.73;;;4.33;;
50161;SDS011;36061;48.116;11.612;2023-05-29T06:16:52;6.47;;;4.43;;
50161;SDS011;36061;48.116;11.612;2023-05-29T06:19:20;7.67;;;4.27;;
50161;SDS011;36061;48.116;11.612;2023-05-29T06:21:54;7.87;;;4.77;;
50161;SDS011;36061;48.116;11.612;2023-05-29T06:24:21;6.73;;;4.53;;
50161;SDS011;36061;48.116;11.612;2023-05-29T06:26:49;7.77;;;4.40;;
50161;SDS011;36061;48.116;11.612;2023-05-29T06:29:18;9.50;;;4.60;;
50161;SDS011;36061;48.116;11.612;2023-05-29T06:31:46;6.17;;;4.33;;
50161;SDS011;36061;48.116;11.612;2023-05-29T06:34:13;6.27;;;3.53;;
50161;SDS011;36061;48.116;11.612;2023-05-29T06:36:41;7.50;;;4.13;;
50161;SDS011;36061;48.116;11.612;2023-05-29T06:39:09;7.27;;;4.10;;
50161;SDS011;36061;48.116;11.612;2023-05-29T06:41:37;6.33;;;3.80;;
50161;SDS011;36061;48.116;11.612;2023-05-29T06:44:05;10.30;;;5.57;;
50161;SDS011;36061;48.116;11.612;2023-05-29T06:46:34;8.00;;;3.73;;
50161;SDS011;36061;48.116;11.612;2023-05-29T06:49:01;7.27;;;4.17;;
50161;SDS011;36061;48.116;11.612;2023-05-29T06:51:28;6.07;;;3.50;;
50161;SDS011;36061;48.116;11.612;2023-05-29T06:53:56;6.70;;;3.80;;
50161;SDS011;36061;48.116;11.612;2023-05-29T06:56:26;6.57;;;4.47;;
50161;SDS011;36061;48.116;11.612;2023-05-29T06:58:54;7.40;;;3.90;;
50161;SDS011;36061;48.116;11.612;2023-05-29T07:01:22;7.13;;;4.20;;
50161;SDS011;36061;48.116;11.612;2023-05-29T07:04:02;5.43;;;3.53;;
50161;SDS011;36061;48.116;11.612;2023-05-29T07:06:30;6.17;;;3.83;;
50161;SDS011;36061;48.116;11.612;2023-05-29T07:08:58;4.93;;;3.50;;
50161;SDS011;36061;48.116;11.612;2023-05-29T07:11:26;4.87;;;3.87;;
50161;SDS011;36061;48.116;11.612;2023-05-29T07:13:53;6.93;;;3.90;;
50161;SDS011;36061;48.116;11.612;2023-05-29T07:16:21;7.63;;;3.30;;
50161;SDS011;36061;48.116;11.612;2023-05-29T07:18:52;7.83;;;4.50;;
50161;SDS011;36061;48.116;11.612;2023-05-29T07:21:21;6.03;;;3.67;;
50161;SDS011;36061;48.116;11.612;2023-05-29T07:23:48;6.27;;;3.97;;
50161;SDS011;36061;48.116;11.612;2023-05-29T07:26:15;6.33;;;4.10;;
50161;SDS011;36061;48.116;11.612;2023-05-29T07:28:43;6.80;;;4.00;;
50161;SDS011;36061;48.116;11.612;2023-05-29T07:31:10;6.93;;;4.27;;
50161;SDS011;36061;48.116;11.612;2023-05-29T07:33:39;5.87;;;3.80;;
50161;SDS011;36061;48.116;11.612;2023-05-29T07:36:07;6.37;;;3.60;;
50161;SDS011;36061;48.116;11.612;2023-05-29T07:38:35;7.43;;;4.27;;
50161;SDS011;36061;48.116;11.612;2023-05-29T07:41:03;5.50;;;4.47;;
50161;SDS011;36061;48.116;11.612;2023-05-29T07:43:32;6.70;;;4.23;;
50161;SDS011;36061;48.116;11.612;2023-05-29T07:46:03;9.47;;;3.73;;
50161;SDS011;36061;48.116;11.612;2023-05-29T07:48:30;5.27;;;4.10;;
50161;SDS011;36061;48.116;11.612;2023-05-29T07:50:58;6.10;;;4.30;;
50161;SDS011;36061;48.116;11.612;2023-05-29T07:53:30;5.87;;;4.60;;
50161;SDS011;36061;48.116;11.612;2023-05-29T07:55:59;6.17;;;4.20;;
50161;SDS011;36061;48.116;11.612;2023-05-29T07:58:26;10.13;;;4.30;;
50161;SDS011;36061;48.116;11.612;2023-05-29T08:00:54;5.13;;;3.80;;
50161;SDS011;36061;48.116;11.612;2023-05-29T08:03:22;6.80;;;4.80;;
50161;SDS011;36061;48.116;11.612;2023-05-29T08:05:49;6.47;;;4.47;;
50161;SDS011;36061;48.116;11.612;2023-05-29T08:08:18;8.57;;;4.83;;
50161;SDS011;36061;48.116;11.612;2023-05-29T08:10:45;5.37;;;4.20;;
50161;SDS011;36061;48.116;11.612;2023-05-29T08:13:14;6.20;;;4.07;;
50161;SDS011;36061;48.116;11.612;2023-05-29T08:15:43;5.87;;;4.10;;
50161;SDS011;36061;48.116;11.612;2023-05-29T08:18:11;6.87;;;4.40;;
50161;SDS011;36061;48.116;11.612;2023-05-29T08:20:38;8.50;;;5.03;;
50161;SDS011;36061;48.116;11.612;2023-05-29T08:23:05;7.80;;;5.00;;
50161;SDS011;36061;48.116;11.612;2023-05-29T08:25:32;9.23;;;5.10;;
50161;SDS011;36061;48.116;11.612;2023-05-29T08:28:00;7.37;;;4.73;;
50161;SDS011;36061;48.116;11.612;2023-05-29T08:30:28;8.73;;;4.63;;
50161;SDS011;36061;48.116;11.612;2023-05-29T08:32:56;7.90;;;4.13;;
50161;SDS011;36061;48.116;11.612;2023-05-29T08:35:23;7.70;;;4.10;;
50161;SDS011;36061;48.116;11.612;2023-05-29T08:37:51;6.97;;;4.87;;
50161;SDS011;36061;48.116;11.612;2023-05-29T08:40:18;8.17;;;4.83;;
50161;SDS011;36061;48.116;11.612;2023-05-29T08:42:46;7.83;;;4.67;;
50161;SDS011;36061;48.116;11.612;2023-05-29T08:45:17;8.50;;;4.80;;
50161;SDS011;36061;48.116;11.612;2023-05-29T08:47:49;9.40;;;5.27;;
50161;SDS011;36061;48.116;11.612;2023-05-29T08:50:19;7.87;;;4.93;;
50161;SDS011;36061;48.116;11.612;2023-05-29T08:52:47;7.67;;;4.17;;
50161;SDS011;36061;48.116;11.612;2023-05-29T08:55:14;5.43;;;3.80;;
50161;SDS011;36061;48.116;11.612;2023-05-29T08:57:41;6.57;;;4.23;;
50161;SDS011;36061;48.116;11.612;2023-05-29T09:00:10;9.40;;;4.77;;
50161;SDS011;36061;48.116;11.612;2023-05-29T09:02:38;6.30;;;4.23;;
50161;SDS011;36061;48.116;11.612;2023-05-29T09:05:07;6.70;;;4.10;;
50161;SDS011;36061;48.116;11.612;2023-05-29T09:07:35;6.00;;;4.53;;
50161;SDS011;36061;48.116;11.612;2023-05-29T09:10:04;9.13;;;4.83;;
50161;SDS011;36061;48.116;11.612;2023-05-29T09:12:32;6.63;;;3.90;;
50161;SDS011;36061;48.116;11.612;2023-05-29T09:14:59;9.50;;;4.13;;
50161;SDS011;36061;48.116;11.612;2023-05-29T09:17:30;6.77;;;3.73;;
50161;SDS011;36061;48.116;11.612;2023-05-29T09:19:58;9.70;;;4.43;;
50161;SDS011;36061;48.116;11.612;2023-05-29T09:22:27;9.03;;;4.40;;
50161;SDS011;36061;48.116;11.612;2023-05-29T09:24:54;7.63;;;3.80;;
50161;SDS011;36061;48.116;11.612;2023-05-29T09:27:21;7.00;;;4.37;;
50161;SDS011;36061;48.116;11.612;2023-05-29T09:29:48;6.30;;;3.40;;
50161;SDS011;36061;48.116;11.612;2023-05-29T09:32:16;6.90;;;3.97;;
50161;SDS011;36061;48.116;11.612;2023-05-29T09:34:44;9.77;;;3.70;;
50161;SDS011;36061;48.116;11.612;2023-05-29T09:37:12;9.73;;;4.33;;
50161;SDS011;36061;48.116;11.612;2023-05-29T09:39:47;9.17;;;4.17;;
50161;SDS011;36061;48.116;11.612;2023-05-29T09:42:14;4.97;;;3.97;;
50161;SDS011;36061;48.116;11.612;2023-05-29T09:44:45;7.13;;;4.30;;
50161;SDS011;36061;48.116;11.612;2023-05-29T09:47:16;4.97;;;3.30;;
50161;SDS011;36061;48.116;11.612;2023-05-29T09:49:44;6.43;;;4.00;;
50161;SDS011;36061;48.116;11.612;2023-05-29T09:52:12;7.07;;;3.83;;
50161;SDS011;36061;48.116;11.612;2023-05-29T09:54:41;6.63;;;3.77;;
50161;SDS011;36061;48.116;11.612;2023-05-29T09:57:12;4.53;;;3.50;;
50161;SDS011;36061;48.116;11.612;2023-05-29T09:59:41;6.97;;;3.83;;
50161;SDS011;36061;48.116;11.612;2023-05-29T10:02:10;5.33;;;3.30;;
50161;SDS011;36061;48.116;11.612;2023-05-29T10:04:39;5.70;;;3.60;;
50161;SDS011;36061;48.116;11.612;2023-05-29T10:07:08;5.23;;;3.30;;
50161;SDS011;36061;48.116;11.612;2023-05-29T10:09:41;5.77;;;3.27;;
50161;SDS011;36061;48.116;11.612;2023-05-29T10:12:12;4.10;;;3.10;;
50161;SDS011;36061;48.116;11.612;2023-05-29T10:14:42;7.57;;;3.47;;
50161;SDS011;36061;48.116;11.612;2023-05-29T10:17:12;4.30;;;3.90;;
50161;SDS011;36061;48.116;11.612;2023-05-29T10:19:41;4.63;;;3.47;;
50161;SDS011;36061;48.116;11.612;2023-05-29T10:22:11;4.60;;;3.23;;
50161;SDS011;36061;48.116;11.612;2023-05-29T10:24:39;8.87;;;3.50;;
50161;SDS011;36061;48.116;11.612;2023-05-29T10:27:07;8.40;;;3.27;;
50161;SDS011;36061;48.116;11.612;2023-05-29T10:29:36;4.47;;;3.40;;
50161;SDS011;36061;48.116;11.612;2023-05-29T10:32:12;5.97;;;3.43;;
50161;SDS011;36061;48.116;11.612;2023-05-29T10:34:48;6.23;;;3.63;;
50161;SDS011;36061;48.116;11.612;2023-05-29T10:37:32;5.67;;;3.30;;
50161;SDS011;36061;48.116;11.612;2023-05-29T10:40:04;7.03;;;3.60;;
50161;SDS011;36061;48.116;11.612;2023-05-29T10:42:40;6.87;;;3.53;;
50161;SDS011;36061;48.116;11.612;2023-05-29T10:45:10;6.97;;;3.53;;
50161;SDS011;36061;48.116;11.612;2023-05-29T10:51:05;4.37;;;3.37;;
50161;SDS011;36061;48.116;11.612;2023-05-29T10:53:33;6.40;;;3.37;;
50161;SDS011;36061;48.116;11.612;2023-05-29T10:56:07;5.60;;;3.70;;
50161;SDS011;36061;48.116;11.612;2023-05-29T10:58:37;6.23;;;3.60;;
50161;SDS011;36061;48.116;11.612;2023-05-29T11:01:07;6.23;;;3.23;;
50161;SDS011;36061;48.116;11.612;2023-05-29T11:03:37;4.37;;;3.37;;
50161;SDS011;36061;48.116;11.612;2023-05-29T11:06:06;4.57;;;3.20;;
50161;SDS011;36061;48.116;11.612;2023-05-29T11:08:35;4.50;;;3.40;;
50161;SDS011;36061;48.116;11.612;2023-05-29T11:11:11;6.27;;;3.20;;
50161;SDS011;36061;48.116;11.612;2023-05-29T11:13:39;4.23;;;2.80;;
50161;SDS011;36061;48.116;11.612;2023-05-29T11:16:19;5.07;;;3.17;;
50161;SDS011;36061;48.116;11.612;2023-05-29T11:19:03;4.53;;;2.80;;
50161;SDS011;36061;48.116;11.612;2023-05-29T11:21:33;5.63;;;3.33;;
50161;SDS011;36061;48.116;11.612;2023-05-29T11:24:05;5.83;;;3.00;;
50161;SDS011;36061;48.116;11.612;2023-05-29T11:26:32;4.77;;;3.03;;
50161;SDS011;36061;48.116;11.612;2023-05-29T11:29:00;6.10;;;2.97;;
50161;SDS011;36061;48.116;11.612;2023-05-29T11:31:33;4.93;;;3.13;;
50161;SDS011;36061;48.116;11.612;2023-05-29T11:34:02;4.40;;;3.20;;
50161;SDS011;36061;48.116;11.612;2023-05-29T11:36:31;4.43;;;3.30;;
50161;SDS011;36061;48.116;11.612;2023-05-29T11:38:59;7.27;;;3.80;;
50161;SDS011;36061;48.116;11.612;2023-05-29T11:41:27;6.67;;;3.40;;
50161;SDS011;36061;48.116;11.612;2023-05-29T11:43:57;5.20;;;3.23;;
50161;SDS011;36061;48.116;11.612;2023-05-29T11:46:26;8.33;;;3.67;;
50161;SDS011;36061;48.116;11.612;2023-05-29T11:48:57;5.00;;;3.27;;
50161;SDS011;36061;48.116;11.612;2023-05-29T11:51:25;7.07;;;3.27;;
50161;SDS011;36061;48.116;11.612;2023-05-29T11:53:53;5.47;;;3.07;;
50161;SDS011;36061;48.116;11.612;2023-05-29T11:56:24;4.27;;;3.00;;
50161;SDS011;36061;48.116;11.612;2023-05-29T11:58:52;5.43;;;2.97;;
50161;SDS011;36061;48.116;11.612;2023-05-29T12:01:22;4.80;;;3.23;;
50161;SDS011;36061;48.116;11.612;2023-05-29T12:03:50;4.40;;;3.17;;
50161;SDS011;36061;48.116;11.612;2023-05-29T12:06:31;6.37;;;3.17;;
50161;SDS011;36061;48.116;11.612;2023-05-29T12:08:59;3.83;;;3.20;;
50161;SDS011;36061;48.116;11.612;2023-05-29T12:11:28;4.27;;;3.00;;
50161;SDS011;36061;48.116;11.612;2023-05-29T12:13:55;5.57;;;3.40;;
50161;SDS011;36061;48.116;11.612;2023-05-29T12:16:25;3.87;;;2.57;;
50161;SDS011;36061;48.116;11.612;2023-05-29T12:18:53;5.80;;;3.23;;
50161;SDS011;36061;48.116;11.612;2023-05-29T12:21:21;5.47;;;3.50;;
50161;SDS011;36061;48.116;11.612;2023-05-29T12:23:52;3.83;;;3.13;;
50161;SDS011;36061;48.116;11.612;2023-05-29T12:26:21;4.80;;;3.33;;
50161;SDS011;36061;48.116;11.612;2023-05-29T12:28:50;4.73;;;3.13;;
50161;SDS011;36061;48.116;11.612;2023-05-29T12:31:26;5.13;;;3.20;;
50161;SDS011;36061;48.116;11.612;2023-05-29T12:33:56;4.13;;;2.93;;
50161;SDS011;36061;48.116;11.612;2023-05-29T12:36:26;5.37;;;3.10;;
50161;SDS011;36061;48.116;11.612;2023-05-29T12:38:58;6.50;;;2.63;;
50161;SDS011;36061;48.116;11.612;2023-05-29T12:41:26;6.67;;;3.00;;
50161;SDS011;36061;48.116;11.612;2023-05-29T12:43:55;5.87;;;3.57;;
50161;SDS011;36061;48.116;11.612;2023-05-29T12:46:23;7.50;;;3.87;;
50161;SDS011;36061;48.116;11.612;2023-05-29T12:48:52;5.87;;;2.90;;
50161;SDS011;36061;48.116;11.612;2023-05-29T12:51:23;8.10;;;3.27;;
50161;SDS011;36061;48.116;11.612;2023-05-29T12:53:51;7.07;;;3.30;;
50161;SDS011;36061;48.116;11.612;2023-05-29T12:56:22;4.10;;;3.07;;
50161;SDS011;36061;48.116;11.612;2023-05-29T12:58:51;4.40;;;3.20;;
50161;SDS011;36061;48.116;11.612;2023-05-29T13:01:19;6.43;;;3.13;;
50161;SDS011;36061;48.116;11.612;2023-05-29T13:03:47;4.90;;;3.07;;
50161;SDS011;36061;48.116;11.612;2023-05-29T13:06:15;6.97;;;3.13;;
50161;SDS011;36061;48.116;11.612;2023-05-29T13:08:42;4.63;;;3.10;;
50161;SDS011;36061;48.116;11.612;2023-05-29T13:11:09;4.33;;;2.97;;
50161;SDS011;36061;48.116;11.612;2023-05-29T13:13:38;6.00;;;3.23;;
50161;SDS011;36061;48.116;11.612;2023-05-29T13:16:05;4.60;;;3.43;;
50161;SDS011;36061;48.116;11.612;2023-05-29T13:18:33;5.10;;;3.20;;
50161;SDS011;36061;48.116;11.612;2023-05-29T13:21:00;5.47;;;3.27;;
50161;SDS011;36061;48.116;11.612;2023-05-29T13:23:27;7.87;;;3.43;;
50161;SDS011;36061;48.116;11.612;2023-05-29T13:25:55;4.87;;;2.90;;
50161;SDS011;36061;48.116;11.612;2023-05-29T13:28:22;6.80;;;3.50;;
50161;SDS011;36061;48.116;11.612;2023-05-29T13:30:50;5.03;;;3.00;;
50161;SDS011;36061;48.116;11.612;2023-05-29T13:33:18;4.50;;;3.07;;
50161;SDS011;36061;48.116;11.612;2023-05-29T13:35:45;4.17;;;2.80;;
50161;SDS011;36061;48.116;11.612;2023-05-29T13:38:12;5.50;;;3.13;;
50161;SDS011;36061;48.116;11.612;2023-05-29T13:40:40;4.07;;;2.90;;
50161;SDS011;36061;48.116;11.612;2023-05-29T13:43:07;5.70;;;3.30;;
50161;SDS011;36061;48.116;11.612;2023-05-29T13:45:34;4.37;;;3.00;;
50161;SDS011;36061;48.116;11.612;2023-05-29T13:48:03;4.30;;;2.97;;
50161;SDS011;36061;48.116;11.612;2023-05-29T13:50:30;7.77;;;3.53;;
50161;SDS011;36061;48.116;11.612;2023-05-29T13:52:58;4.00;;;2.80;;
50161;SDS011;36061;48.116;11.612;2023-05-29T13:55:26;2.80;;;2.50;;
50161;SDS011;36061;48.116;11.612;2023-05-29T13:57:53;5.70;;;2.67;;
50161;SDS011;36061;48.116;11.612;2023-05-29T14:00:23;4.43;;;2.77;;
50161;SDS011;36061;48.116;11.612;2023-05-29T14:02:50;4.53;;;2.70;;
50161;SDS011;36061;48.116;11.612;2023-05-29T14:05:18;8.20;;;3.10;;
50161;SDS011;36061;48.116;11.612;2023-05-29T14:07:46;6.90;;;2.97;;
50161;SDS011;36061;48.116;11.612;2023-05-29T14:10:13;7.40;;;3.23;;
50161;SDS011;36061;48.116;11.612;2023-05-29T14:12:41;4.27;;;3.00;;
50161;SDS011;36061;48.116;11.612;2023-05-29T14:15:08;4.77;;;3.27;;
50161;SDS011;36061;48.116;11.612;2023-05-29T14:17:36;4.57;;;3.00;;
50161;SDS011;36061;48.116;11.612;2023-05-29T14:20:04;4.63;;;3.13;;
50161;SDS011;36061;48.116;11.612;2023-05-29T14:22:35;5.20;;;3.23;;
50161;SDS011;36061;48.116;11.612;2023-05-29T14:25:03;4.50;;;3.27;;
50161;SDS011;36061;48.116;11.612;2023-05-29T14:27:30;4.10;;;3.13;;
50161;SDS011;36061;48.116;11.612;2023-05-29T14:29:58;7.23;;;3.33;;
50161;SDS011;36061;48.116;11.612;2023-05-29T14:32:25;4.63;;;3.13;;
50161;SDS011;36061;48.116;11.612;2023-05-29T14:34:52;4.60;;;2.87;;
50161;SDS011;36061;48.116;11.612;2023-05-29T14:37:20;4.13;;;3.27;;
50161;SDS011;36061;48.116;11.612;2023-05-29T14:39:48;4.00;;;2.70;;
50161;SDS011;36061;48.116;11.612;2023-05-29T14:42:15;5.33;;;3.57;;
50161;SDS011;36061;48.116;11.612;2023-05-29T14:44:43;4.57;;;3.10;;
50161;SDS011;36061;48.116;11.612;2023-05-29T14:47:10;6.83;;;3.47;;